createdAt,value
2019-05-26T00:00:31.963Z,98105.75
2019-05-26T00:03:02.159Z,98105.45
2019-05-26T00:05:32.154Z,98110.55
2019-05-26T00:08:02.217Z,98109.71
2019-05-26T00:10:32.132Z,98109.94
2019-05-26T00:13:02.061Z,98106.91
2019-05-26T00:15:31.932Z,98113.30
2019-05-26T00:18:01.852Z,98109.77
2019-05-26T00:20:31.739Z,98104.09
2019-05-26T00:23:01.913Z,98099.86
2019-05-26T00:25:32.299Z,98097.21
2019-05-26T00:28:02.220Z,98094.59
2019-05-26T00:30:32.165Z,98090.93
2019-05-26T00:33:02.259Z,98086.56
2019-05-26T00:35:32.133Z,98084.38
2019-05-26T00:38:02.058Z,98079.34
2019-05-26T00:40:31.944Z,98080.02
2019-05-26T00:43:01.924Z,98075.20
2019-05-26T00:45:32.115Z,98073.51
2019-05-26T00:48:02.582Z,98079.24
2019-05-26T00:50:32.605Z,98075.38
2019-05-26T00:53:02.866Z,98076.18
2019-05-26T00:55:32.843Z,98074.46
2019-05-26T00:58:03.139Z,98076.95
2019-05-26T01:00:43.519Z,98075.98
2019-05-26T01:03:13.869Z,98072.05
2019-05-26T01:05:43.892Z,98070.31
2019-05-26T01:08:14.127Z,98071.52
2019-05-26T01:10:44.074Z,98070.86
2019-05-26T01:13:14.038Z,98070.79
2019-05-26T01:15:43.936Z,98070.20
2019-05-26T01:18:13.980Z,98069.10
2019-05-26T01:20:43.884Z,98068.84
2019-05-26T01:23:13.961Z,98074.88
2019-05-26T01:25:44.647Z,98075.76
2019-05-26T01:28:14.640Z,98073.44
2019-05-26T01:30:44.746Z,98079.63
2019-05-26T01:33:14.852Z,98079.77
2019-05-26T01:35:44.913Z,98082.70
2019-05-26T01:38:23.781Z,98080.45
2019-05-26T01:40:47.662Z,98092.25
2019-05-26T01:43:17.712Z,98087.16
2019-05-26T01:45:47.604Z,98090.52
2019-05-26T01:48:17.564Z,98089.02
2019-05-26T01:50:47.610Z,98093.98
2019-05-26T01:53:17.760Z,98095.25
2019-05-26T01:55:48.301Z,98092.91
2019-05-26T01:58:18.346Z,98089.41
2019-05-26T02:00:48.316Z,98086.05
2019-05-26T02:03:18.480Z,98084.60
2019-05-26T02:05:48.765Z,98086.66
2019-05-26T02:08:18.763Z,98087.49
2019-05-26T02:10:49.288Z,98080.42
2019-05-26T02:13:19.458Z,98079.06
2019-05-26T02:15:49.508Z,98075.55
2019-05-26T02:18:19.422Z,98077.73
2019-05-26T02:20:49.746Z,98080.79
2019-05-26T02:23:19.657Z,98077.34
2019-05-26T02:25:49.656Z,98080.72
2019-05-26T02:28:19.567Z,98074.98
2019-05-26T02:30:49.754Z,98080.13
2019-05-26T02:33:20.236Z,98072.86
2019-05-26T02:35:50.165Z,98083.20
2019-05-26T02:38:20.139Z,98085.23
2019-05-26T02:40:52.647Z,98088.94
2019-05-26T02:43:22.546Z,98089.45
2019-05-26T02:45:52.544Z,98086.70
2019-05-26T02:48:22.456Z,98085.78
2019-05-26T02:50:53.093Z,98084.53
2019-05-26T02:53:24.675Z,98087.46
2019-05-26T02:55:54.895Z,98085.06
2019-05-26T02:58:24.950Z,98091.34
2019-05-26T03:00:55.065Z,98091.66
2019-05-26T03:03:25.123Z,98091.16
2019-05-26T03:05:56.266Z,98095.07
2019-05-26T03:08:27.967Z,98094.48
2019-05-26T03:11:01.041Z,98095.13
2019-05-26T03:13:35.070Z,98093.23
2019-05-26T03:16:06.515Z,98090.02
2019-05-26T03:18:39.793Z,98106.31
2019-05-26T03:21:10.851Z,98101.58
2019-05-26T03:23:42.852Z,98101.28
2019-05-26T03:26:13.355Z,98096.81
2019-05-26T03:28:43.326Z,98099.88
2019-05-26T03:31:13.248Z,98105.09
2019-05-26T03:33:43.549Z,98107.52
2019-05-26T03:36:13.545Z,98105.23
2019-05-26T03:38:43.612Z,98100.20
2019-05-26T03:41:13.593Z,98100.36
2019-05-26T03:43:43.535Z,98101.06
2019-05-26T03:46:22.620Z,98100.36
2019-05-26T03:48:53.099Z,98104.00
2019-05-26T03:51:23.082Z,98107.09
2019-05-26T03:53:53.250Z,98105.45
2019-05-26T03:56:23.241Z,98107.70
2019-05-26T03:58:53.218Z,98105.95
2019-05-26T04:01:23.219Z,98111.31
2019-05-26T04:03:53.693Z,98108.95
2019-05-26T04:06:23.767Z,98117.89
2019-05-26T04:08:54.016Z,98122.88
2019-05-26T04:11:23.905Z,98123.94
2019-05-26T04:13:53.999Z,98117.72
2019-05-26T04:16:23.994Z,98118.36
2019-05-26T04:18:54.153Z,98118.02
2019-05-26T04:21:24.244Z,98110.74
2019-05-26T04:23:54.510Z,98114.17
2019-05-26T04:26:24.518Z,98111.63
2019-05-26T04:28:54.481Z,98112.98
2019-05-26T04:31:24.448Z,98113.86
2019-05-26T04:33:56.806Z,98114.52
2019-05-26T04:36:26.721Z,98115.91
2019-05-26T04:38:56.730Z,98115.16
2019-05-26T04:41:26.632Z,98120.20
2019-05-26T04:43:56.614Z,98114.66
2019-05-26T04:46:26.955Z,98116.05
2019-05-26T04:48:56.994Z,98114.31
2019-05-26T04:51:26.908Z,98121.95
2019-05-26T04:53:57.182Z,98124.35
2019-05-26T04:56:27.608Z,98123.64
2019-05-26T04:58:57.602Z,98116.08
2019-05-26T05:01:28.123Z,98119.87
2019-05-26T05:03:58.160Z,98128.12
2019-05-26T05:06:28.077Z,98132.34
2019-05-26T05:08:58.078Z,98130.47
2019-05-26T05:11:27.979Z,98129.77
2019-05-26T05:13:58.309Z,98132.52
2019-05-26T05:16:28.319Z,98138.96
2019-05-26T05:18:58.419Z,98136.56
2019-05-26T05:21:28.326Z,98139.83
2019-05-26T05:23:58.346Z,98144.19
2019-05-26T05:26:28.265Z,98144.91
2019-05-26T05:28:58.238Z,98151.38
2019-05-26T05:31:28.255Z,98147.52
2019-05-26T05:33:58.277Z,98149.69
2019-05-26T05:36:28.267Z,98154.02
2019-05-26T05:38:58.215Z,98151.03
2019-05-26T05:41:28.140Z,98144.13
2019-05-26T05:43:58.127Z,98150.13
2019-05-26T05:46:28.125Z,98152.53
2019-05-26T05:48:58.115Z,98151.17
2019-05-26T05:51:28.134Z,98156.32
2019-05-26T05:53:58.916Z,98154.94
2019-05-26T05:56:28.977Z,98157.34
2019-05-26T05:58:58.963Z,98158.45
2019-05-26T06:01:28.878Z,98156.74
2019-05-26T06:03:58.941Z,98147.75
2019-05-26T06:06:28.849Z,98157.13
2019-05-26T06:08:58.908Z,98156.41
2019-05-26T06:11:28.971Z,98152.27
2019-05-26T06:13:59.555Z,98161.73
2019-05-26T06:16:29.528Z,98169.47
2019-05-26T06:18:59.473Z,98164.67
2019-05-26T06:21:29.434Z,98161.73
2019-05-26T06:23:59.518Z,98162.31
2019-05-26T06:26:29.467Z,98169.00
2019-05-26T06:28:59.546Z,98169.27
2019-05-26T06:31:29.470Z,98171.30
2019-05-26T06:33:59.432Z,98173.56
2019-05-26T06:36:29.444Z,98168.91
2019-05-26T06:38:59.478Z,98172.33
2019-05-26T06:41:33.797Z,98166.34
2019-05-26T06:44:01.586Z,98163.42
2019-05-26T06:46:31.529Z,98162.21
2019-05-26T06:49:01.578Z,98169.28
2019-05-26T06:51:31.566Z,98163.61
2019-05-26T06:54:01.500Z,98170.78
2019-05-26T06:56:31.877Z,98171.61
2019-05-26T06:59:02.861Z,98171.06
2019-05-26T07:01:33.102Z,98164.95
2019-05-26T07:04:03.092Z,98164.30
2019-05-26T07:06:33.115Z,98166.08
2019-05-26T07:09:03.024Z,98163.00
2019-05-26T07:11:49.066Z,98162.67
2019-05-26T07:14:05.361Z,98162.31
2019-05-26T07:16:38.384Z,98159.63
2019-05-26T07:19:07.502Z,98166.27
2019-05-26T07:24:06.834Z,98159.03
2019-05-26T07:26:36.785Z,98154.66
2019-05-26T07:29:06.895Z,98157.41
2019-05-26T07:31:36.835Z,98157.64
2019-05-26T07:34:07.399Z,98158.64
2019-05-26T07:36:37.313Z,98156.30
2019-05-26T07:39:09.492Z,98152.91
2019-05-26T07:41:39.578Z,98153.75
2019-05-26T07:44:09.596Z,98146.95
2019-05-26T07:46:40.182Z,98143.20
2019-05-26T07:49:10.095Z,98140.32
2019-05-26T07:51:40.128Z,98140.20
2019-05-26T07:54:24.502Z,98135.08
2019-05-26T07:56:41.794Z,98133.19
2019-05-26T07:59:11.778Z,98130.03
2019-05-26T08:01:41.816Z,98134.44
2019-05-26T08:04:11.823Z,98138.24
2019-05-26T08:06:41.860Z,98131.60
2019-05-26T08:09:12.104Z,98129.75
2019-05-26T08:11:42.059Z,98134.67
2019-05-26T08:14:12.035Z,98136.83
2019-05-26T08:16:42.350Z,98130.05
2019-05-26T08:19:12.427Z,98135.03
2019-05-26T08:21:42.360Z,98126.62
2019-05-26T08:24:12.549Z,98121.85
2019-05-26T08:26:42.595Z,98122.95
2019-05-26T08:29:13.154Z,98116.60
2019-05-26T08:31:43.338Z,98119.40
2019-05-26T08:34:13.251Z,98116.84
2019-05-26T08:36:43.345Z,98114.34
2019-05-26T08:39:13.336Z,98110.38
2019-05-26T08:41:43.280Z,98112.62
2019-05-26T08:44:13.180Z,98104.86
2019-05-26T08:46:43.121Z,98105.09
2019-05-26T08:49:13.785Z,98100.61
2019-05-26T08:51:43.747Z,98101.87
2019-05-26T08:54:14.350Z,98098.36
2019-05-26T08:56:44.362Z,98096.56
2019-05-26T08:59:14.268Z,98097.59
2019-05-26T09:01:44.239Z,98098.80
2019-05-26T09:04:14.224Z,98100.49
2019-05-26T09:06:44.183Z,98099.60
2019-05-26T09:09:14.591Z,98099.28
2019-05-26T09:11:44.733Z,98095.67
2019-05-26T09:14:14.657Z,98096.05
2019-05-26T09:16:45.319Z,98094.84
2019-05-26T09:19:15.307Z,98092.77
2019-05-26T09:21:45.291Z,98088.62
2019-05-26T09:24:15.242Z,98091.90
2019-05-26T09:26:45.269Z,98087.32
2019-05-26T09:29:15.248Z,98083.90
2019-05-26T09:31:45.200Z,98079.81
2019-05-26T09:34:15.399Z,98084.80
2019-05-26T09:36:45.506Z,98075.44
2019-05-26T09:39:15.485Z,98074.21
2019-05-26T09:41:45.382Z,98076.90
2019-05-26T09:44:15.368Z,98075.02
2019-05-26T09:46:45.271Z,98069.42
2019-05-26T09:49:15.431Z,98070.70
2019-05-26T09:51:45.355Z,98066.14
2019-05-26T09:54:15.525Z,98064.59
2019-05-26T09:56:45.592Z,98063.77
2019-05-26T09:59:15.579Z,98054.36
2019-05-26T10:01:46.205Z,98053.70
2019-05-26T10:04:16.285Z,98055.62
2019-05-26T10:06:46.205Z,98052.13
2019-05-26T10:09:16.149Z,98047.91
2019-05-26T10:11:46.298Z,98051.97
2019-05-26T10:14:16.322Z,98046.38
2019-05-26T10:16:46.333Z,98037.08
2019-05-26T10:19:16.349Z,98048.17
2019-05-26T10:21:46.293Z,98045.13
2019-05-26T10:24:16.443Z,98032.20
2019-05-26T10:26:46.347Z,98036.27
2019-05-26T10:29:16.279Z,98039.31
2019-05-26T10:31:46.200Z,98037.91
2019-05-26T10:34:16.777Z,98031.50
2019-05-26T10:36:46.714Z,98026.08
2019-05-26T10:39:16.844Z,98032.19
2019-05-26T10:41:47.398Z,98027.47
2019-05-26T10:44:18.070Z,98024.29
2019-05-26T10:46:47.979Z,98015.87
2019-05-26T10:49:18.230Z,98011.59
2019-05-26T10:51:48.225Z,98009.08
2019-05-26T10:54:18.289Z,98008.51
2019-05-26T10:56:48.420Z,98007.62
2019-05-26T10:59:18.339Z,98004.41
2019-05-26T11:01:48.361Z,98000.33
2019-05-26T11:04:18.347Z,97997.70
2019-05-26T11:06:48.348Z,97994.59
2019-05-26T11:09:18.340Z,98004.05
2019-05-26T11:11:48.396Z,97999.27
2019-05-26T11:14:18.430Z,98000.26
2019-05-26T11:16:48.562Z,97986.89
2019-05-26T11:19:19.217Z,97995.22
2019-05-26T11:21:49.353Z,97988.83
2019-05-26T11:24:19.375Z,97988.86
2019-05-26T11:26:49.668Z,97976.99
2019-05-26T11:29:19.771Z,97980.60
2019-05-26T11:31:49.735Z,97972.69
2019-05-26T11:34:19.706Z,97957.35
2019-05-26T11:36:49.657Z,97956.42
2019-05-26T11:39:19.556Z,97955.28
2019-05-26T11:41:55.009Z,97952.56
2019-05-26T11:44:21.139Z,97946.47
2019-05-26T11:46:51.221Z,97949.05
2019-05-26T11:49:21.146Z,97944.32
2019-05-26T11:51:51.226Z,97943.94
2019-05-26T11:54:21.184Z,97938.08
2019-05-26T11:56:51.161Z,97939.62
2019-05-26T11:59:21.145Z,97940.44
2019-05-26T12:01:51.078Z,97935.66
2019-05-26T12:04:21.015Z,97938.84
2019-05-26T12:06:51.059Z,97948.38
2019-05-26T12:09:21.059Z,97939.72
2019-05-26T12:11:51.073Z,97933.18
2019-05-26T12:14:34.475Z,97938.62
2019-05-26T12:16:54.630Z,97927.06
2019-05-26T12:19:24.669Z,97922.20
2019-05-26T12:21:54.616Z,97919.97
2019-05-26T12:24:24.610Z,97915.55
2019-05-26T12:26:54.563Z,97911.42
2019-05-26T12:29:24.830Z,97912.65
2019-05-26T12:31:54.905Z,97909.34
2019-05-26T12:34:24.914Z,97904.66
2019-05-26T12:36:54.929Z,97912.04
2019-05-26T12:39:24.892Z,97910.97
2019-05-26T12:41:54.883Z,97908.75
2019-05-26T12:44:24.830Z,97904.14
2019-05-26T12:46:55.004Z,97897.35
2019-05-26T12:49:27.752Z,97891.06
2019-05-26T12:51:56.837Z,97892.33
2019-05-26T12:54:26.898Z,97887.07
2019-05-26T12:56:57.024Z,97890.13
2019-05-26T12:59:26.938Z,97887.19
2019-05-26T13:01:56.881Z,97883.89
2019-05-26T13:04:26.924Z,97888.06
2019-05-26T13:06:56.917Z,97883.14
2019-05-26T13:09:27.046Z,97875.70
2019-05-26T13:11:57.073Z,97874.23
2019-05-26T13:14:27.105Z,97872.55
2019-05-26T13:17:01.404Z,97875.20
2019-05-26T13:19:29.297Z,97873.41
2019-05-26T13:21:59.304Z,97859.11
2019-05-26T13:24:29.205Z,97860.36
2019-05-26T13:26:59.140Z,97861.73
2019-05-26T13:29:29.051Z,97861.07
2019-05-26T13:31:58.988Z,97856.30
2019-05-26T13:34:29.057Z,97855.58
2019-05-26T13:36:59.221Z,97860.34
2019-05-26T13:39:29.200Z,97861.26
2019-05-26T13:41:59.105Z,97857.63
2019-05-26T13:44:30.403Z,97851.18
2019-05-26T13:47:00.455Z,97846.47
2019-05-26T13:49:30.428Z,97838.20
2019-05-26T13:52:00.414Z,97836.65
2019-05-26T13:54:30.440Z,97844.05
2019-05-26T13:57:00.416Z,97836.00
2019-05-26T13:59:31.025Z,97841.55
2019-05-26T14:02:01.078Z,97831.46
2019-05-26T14:04:31.338Z,97824.31
2019-05-26T14:07:01.232Z,97824.33
2019-05-26T14:09:31.132Z,97827.31
2019-05-26T14:12:01.219Z,97830.98
2019-05-26T14:14:31.497Z,97827.27
2019-05-26T14:17:03.141Z,97825.20
2019-05-26T14:19:34.867Z,97829.04
2019-05-26T14:22:05.056Z,97836.94
2019-05-26T14:24:35.359Z,97837.70
2019-05-26T14:27:05.735Z,97837.88
2019-05-26T14:29:35.707Z,97837.25
2019-05-26T14:32:05.810Z,97833.06
2019-05-26T14:34:36.384Z,97837.48
2019-05-26T14:37:06.553Z,97831.48
2019-05-26T14:39:36.533Z,97824.66
2019-05-26T14:42:06.612Z,97822.68
2019-05-26T14:44:37.025Z,97821.64
2019-05-26T14:47:07.098Z,97812.97
2019-05-26T14:49:37.273Z,97818.89
2019-05-26T14:52:07.533Z,97819.92
2019-05-26T14:54:37.548Z,97817.84
2019-05-26T14:57:07.600Z,97818.97
2019-05-26T14:59:37.555Z,97816.28
2019-05-26T15:02:07.771Z,97810.11
2019-05-26T15:04:37.916Z,97812.59
2019-05-26T15:07:08.024Z,97812.17
2019-05-26T15:09:37.923Z,97809.11
2019-05-26T15:12:08.251Z,97808.13
2019-05-26T15:14:38.236Z,97811.13
2019-05-26T15:17:08.313Z,97807.78
2019-05-26T15:19:38.993Z,97808.20
2019-05-26T15:22:08.973Z,97796.03
2019-05-26T15:24:39.033Z,97795.36
2019-05-26T15:27:08.928Z,97801.94
2019-05-26T15:29:39.174Z,97793.05
2019-05-26T15:32:09.189Z,97794.24
2019-05-26T15:34:41.907Z,97793.58
2019-05-26T15:37:11.922Z,97795.67
2019-05-26T15:39:41.981Z,97787.95
2019-05-26T15:42:11.964Z,97785.24
2019-05-26T15:44:46.503Z,97786.97
2019-05-26T15:47:16.765Z,97791.80
2019-05-26T15:49:46.900Z,97785.09
2019-05-26T15:52:16.974Z,97780.28
2019-05-26T15:54:46.885Z,97776.66
2019-05-26T15:57:16.879Z,97776.97
2019-05-26T15:59:46.857Z,97772.72
2019-05-26T16:02:16.992Z,97766.25
2019-05-26T16:04:46.882Z,97767.71
2019-05-26T16:07:16.825Z,97767.37
2019-05-26T16:09:46.719Z,97764.20
2019-05-26T16:12:16.764Z,97765.62
2019-05-26T16:14:46.887Z,97764.03
2019-05-26T16:17:16.838Z,97769.05
2019-05-26T16:19:46.788Z,97767.98
2019-05-26T16:22:16.846Z,97766.91
2019-05-26T16:24:46.757Z,97767.67
2019-05-26T16:27:19.491Z,97764.67
2019-05-26T16:29:48.960Z,97772.95
2019-05-26T16:32:19.186Z,97770.72
2019-05-26T16:34:49.142Z,97762.45
2019-05-26T16:37:20.021Z,97767.13
2019-05-26T16:39:49.975Z,97771.27
2019-05-26T16:42:20.583Z,97770.41
2019-05-26T16:44:50.698Z,97764.64
2019-05-26T16:47:20.601Z,97760.94
2019-05-26T16:49:50.537Z,97758.70
2019-05-26T16:52:20.661Z,97760.13
2019-05-26T16:54:51.533Z,97752.45
2019-05-26T16:57:21.462Z,97745.66
2019-05-26T16:59:51.398Z,97745.63
2019-05-26T17:02:21.883Z,97749.45
2019-05-26T17:04:52.021Z,97750.29
2019-05-26T17:07:22.659Z,97748.38
2019-05-26T17:09:52.560Z,97750.80
2019-05-26T17:12:22.593Z,97757.35
2019-05-26T17:14:52.523Z,97753.86
2019-05-26T17:17:23.132Z,97745.21
2019-05-26T17:19:53.103Z,97745.69
2019-05-26T17:22:23.143Z,97750.20
2019-05-26T17:24:53.060Z,97748.66
2019-05-26T17:27:23.315Z,97743.31
2019-05-26T17:29:53.764Z,97743.92
2019-05-26T17:32:23.802Z,97745.39
2019-05-26T17:34:53.989Z,97741.37
2019-05-26T17:37:24.054Z,97750.07
2019-05-26T17:39:53.971Z,97748.81
2019-05-26T17:42:23.916Z,97755.25
2019-05-26T17:44:53.820Z,97748.22
2019-05-26T17:47:30.153Z,97756.23
2019-05-26T17:49:55.583Z,97751.78
2019-05-26T17:52:26.177Z,97753.00
2019-05-26T17:54:56.105Z,97752.63
2019-05-26T17:57:26.005Z,97746.59
2019-05-26T17:59:56.561Z,97741.97
2019-05-26T18:02:26.584Z,97742.03
2019-05-26T18:04:56.490Z,97740.78
2019-05-26T18:07:26.510Z,97738.72
2019-05-26T18:09:56.888Z,97738.91
2019-05-26T18:12:26.976Z,97736.44
2019-05-26T18:14:56.870Z,97736.48
2019-05-26T18:17:26.895Z,97733.88
2019-05-26T18:19:56.808Z,97726.16
2019-05-26T18:22:27.210Z,97732.63
2019-05-26T18:24:58.857Z,97730.05
2019-05-26T18:27:29.066Z,97732.11
2019-05-26T18:29:58.967Z,97739.34
2019-05-26T18:32:28.962Z,97728.23
2019-05-26T18:34:59.486Z,97730.83
2019-05-26T18:37:29.386Z,97730.30
2019-05-26T18:39:59.337Z,97730.05
2019-05-26T18:42:29.302Z,97734.19
2019-05-26T18:44:59.252Z,97734.19
2019-05-26T18:47:29.445Z,97729.00
2019-05-26T18:49:59.367Z,97731.59
2019-05-26T18:52:29.720Z,97730.80
2019-05-26T18:54:59.653Z,97729.70
2019-05-26T18:57:29.615Z,97739.48
2019-05-26T18:59:59.578Z,97733.98
2019-05-26T19:02:29.700Z,97733.39
2019-05-26T19:04:59.675Z,97729.18
2019-05-26T19:07:31.140Z,97723.09
2019-05-26T19:10:01.081Z,97726.84
2019-05-26T19:12:31.231Z,97724.14
2019-05-26T19:15:01.251Z,97728.14
2019-05-26T19:17:31.406Z,97726.99
2019-05-26T19:20:14.832Z,97725.81
2019-05-26T19:22:33.118Z,97724.47
2019-05-26T19:25:03.392Z,97728.69
2019-05-26T19:27:33.437Z,97729.41
2019-05-26T19:30:03.484Z,97734.64
2019-05-26T19:32:33.623Z,97730.39
2019-05-26T19:35:03.947Z,97737.95
2019-05-26T19:37:33.890Z,97742.16
2019-05-26T19:40:03.843Z,97749.55
2019-05-26T19:42:33.789Z,97747.89
2019-05-26T19:45:03.820Z,97753.08
2019-05-26T19:47:33.761Z,97750.19
2019-05-26T19:50:04.042Z,97742.64
2019-05-26T19:52:33.981Z,97749.30
2019-05-26T19:55:04.093Z,97752.56
2019-05-26T19:57:34.172Z,97751.09
2019-05-26T20:00:05.063Z,97751.20
2019-05-26T20:02:35.366Z,97757.34
2019-05-26T20:05:06.842Z,97758.41
2019-05-26T20:07:37.043Z,97759.89
2019-05-26T20:10:07.422Z,97755.36
2019-05-26T20:12:37.717Z,97747.02
2019-05-26T20:15:10.463Z,97755.03
2019-05-26T20:17:40.504Z,97752.66
2019-05-26T20:20:12.028Z,97753.66
2019-05-26T20:22:42.003Z,97751.39
2019-05-26T20:25:12.176Z,97760.21
2019-05-26T20:27:42.377Z,97762.26
2019-05-26T20:30:12.644Z,97768.59
2019-05-26T20:32:42.730Z,97757.73
2019-05-26T20:35:13.215Z,97762.19
2019-05-26T20:37:43.207Z,97752.80
2019-05-26T20:40:14.309Z,97761.44
2019-05-26T20:42:44.316Z,97759.34
2019-05-26T20:45:16.814Z,97763.84
2019-05-26T20:47:46.749Z,97760.69
2019-05-26T20:50:28.695Z,97756.02
2019-05-26T20:52:48.912Z,97761.05
2019-05-26T20:55:19.126Z,97762.70
2019-05-26T20:57:49.114Z,97762.09
2019-05-26T21:00:19.529Z,97763.52
2019-05-26T21:02:49.453Z,97761.00
2019-05-26T21:05:19.521Z,97758.11
2019-05-26T21:07:49.801Z,97769.48
2019-05-26T21:10:19.864Z,97768.40
2019-05-26T21:12:50.283Z,97768.58
2019-05-26T21:15:20.385Z,97766.48
2019-05-26T21:17:50.563Z,97764.25
2019-05-26T21:20:20.929Z,97763.72
2019-05-26T21:22:51.095Z,97768.20
2019-05-26T21:25:21.518Z,97762.38
2019-05-26T21:27:51.465Z,97765.11
2019-05-26T21:30:21.649Z,97762.83
2019-05-26T21:32:51.556Z,97760.13
2019-05-26T21:35:21.572Z,97768.72
2019-05-26T21:37:51.476Z,97757.44
2019-05-26T21:40:22.079Z,97765.14
2019-05-26T21:42:51.985Z,97764.74
2019-05-26T21:45:22.226Z,97773.17
2019-05-26T21:47:52.391Z,97774.00
2019-05-26T21:50:22.847Z,97771.30
2019-05-26T21:52:52.824Z,97768.66
2019-05-26T21:55:22.760Z,97766.21
2019-05-26T21:57:52.759Z,97769.13
2019-05-26T22:00:25.068Z,97767.27
2019-05-26T22:02:55.187Z,97766.95
2019-05-26T22:05:25.152Z,97766.11
2019-05-26T22:07:55.351Z,97766.17
2019-05-26T22:10:25.358Z,97767.34
2019-05-26T22:12:55.274Z,97771.11
2019-05-26T22:15:25.593Z,97765.72
2019-05-26T22:17:55.514Z,97762.91
2019-05-26T22:20:25.568Z,97763.14
2019-05-26T22:22:56.208Z,97763.44
2019-05-26T22:25:26.561Z,97760.04
2019-05-26T22:27:56.548Z,97765.46
2019-05-26T22:30:26.581Z,97762.66
2019-05-26T22:32:56.677Z,97761.56
2019-05-26T22:35:26.752Z,97762.68
2019-05-26T22:37:57.379Z,97766.48
2019-05-26T22:40:27.410Z,97761.48
2019-05-26T22:42:58.092Z,97758.12
2019-05-26T22:45:28.051Z,97759.98
2019-05-26T22:47:57.976Z,97757.25
2019-05-26T22:50:28.068Z,97755.38
2019-05-26T22:52:58.562Z,97757.78
2019-05-26T22:55:28.665Z,97757.34
2019-05-26T22:57:58.697Z,97752.05
2019-05-26T23:00:29.660Z,97750.72
2019-05-26T23:02:59.631Z,97745.33
2019-05-26T23:05:29.584Z,97747.44
2019-05-26T23:07:59.511Z,97745.11
2019-05-26T23:10:29.876Z,97747.13
2019-05-26T23:12:59.861Z,97741.00
2019-05-26T23:15:30.200Z,97742.58
2019-05-26T23:18:00.187Z,97740.56
2019-05-26T23:20:30.135Z,97744.45
2019-05-26T23:23:00.071Z,97742.91
2019-05-26T23:25:30.043Z,97742.09
2019-05-26T23:28:00.039Z,97740.38
2019-05-26T23:30:30.050Z,97734.92
2019-05-26T23:32:59.991Z,97733.86
2019-05-26T23:35:29.953Z,97731.50
2019-05-26T23:37:59.938Z,97734.25
2019-05-26T23:40:29.977Z,97725.94
2019-05-26T23:42:59.876Z,97731.54
2019-05-26T23:45:29.808Z,97731.37
2019-05-26T23:47:59.726Z,97719.47
2019-05-26T23:50:29.682Z,97730.40
2019-05-26T23:52:59.584Z,97719.80
2019-05-26T23:55:29.589Z,97726.10
2019-05-26T23:57:59.521Z,97717.53
